createdAt,value
2023-04-04T00:00:13.998Z,-1.25
2023-04-04T00:02:40.253Z,-1.16
2023-04-04T00:05:06.911Z,-1.24
2023-04-04T00:07:33.199Z,-1.08
2023-04-04T00:09:59.451Z,-1.12
2023-04-04T00:12:28.485Z,-1.02
2023-04-04T00:14:55.982Z,-0.96
2023-04-04T00:17:22.200Z,-0.95
2023-04-04T00:19:48.577Z,-0.92
2023-04-04T00:22:14.785Z,-0.90
2023-04-04T00:24:41.019Z,-0.95
2023-04-04T00:27:07.223Z,-0.96
2023-04-04T00:29:33.454Z,-1.00
2023-04-04T00:31:59.867Z,-1.00
2023-04-04T00:34:26.090Z,-0.96
2023-04-04T00:36:52.308Z,-0.91
2023-04-04T00:39:18.520Z,-0.95
2023-04-04T00:41:44.744Z,-0.96
2023-04-04T00:44:10.956Z,-0.98
2023-04-04T00:46:37.169Z,-0.96
2023-04-04T00:49:03.383Z,-0.98
2023-04-04T00:51:29.611Z,-1.02
2023-04-04T00:53:55.823Z,-1.11
2023-04-04T00:56:22.047Z,-1.06
2023-04-04T00:58:48.294Z,-1.09
2023-04-04T01:01:14.554Z,-1.13
2023-04-04T01:03:40.801Z,-1.12
2023-04-04T01:06:07.074Z,-1.13
2023-04-04T01:08:33.277Z,-1.24
2023-04-04T01:10:59.500Z,-1.33
2023-04-04T01:13:25.701Z,-1.52
2023-04-04T01:15:51.923Z,-1.70
2023-04-04T01:18:19.232Z,-1.76
2023-04-04T01:20:50.120Z,-1.71
2023-04-04T01:23:16.323Z,-1.55
2023-04-04T01:25:42.573Z,-1.51
2023-04-04T01:28:08.780Z,-1.49
2023-04-04T01:30:35.067Z,-1.39
2023-04-04T01:33:02.101Z,-1.38
2023-04-04T01:35:33.473Z,-1.37
2023-04-04T01:38:18.035Z,-1.35
2023-04-04T01:40:44.868Z,-1.34
2023-04-04T01:43:11.093Z,-1.26
2023-04-04T01:45:37.347Z,-1.27
2023-04-04T01:48:03.608Z,-1.31
2023-04-04T01:50:29.848Z,-1.34
2023-04-04T01:52:56.056Z,-1.37
2023-04-04T01:55:22.278Z,-1.37
2023-04-04T01:57:48.505Z,-1.36
2023-04-04T02:00:14.775Z,-1.36
2023-04-04T02:02:41.012Z,-1.33
2023-04-04T02:05:07.321Z,-1.32
2023-04-04T02:07:33.547Z,-1.45
2023-04-04T02:09:59.764Z,-1.42
2023-04-04T02:12:25.982Z,-1.45
2023-04-04T02:14:52.194Z,-1.44
2023-04-04T02:17:18.419Z,-1.41
2023-04-04T02:19:44.618Z,-1.42
2023-04-04T02:22:10.844Z,-1.48
2023-04-04T02:24:37.057Z,-1.48
2023-04-04T02:27:03.288Z,-1.51
2023-04-04T02:29:29.515Z,-1.57
2023-04-04T02:31:55.719Z,-1.66
2023-04-04T02:34:21.947Z,-1.67
2023-04-04T02:36:48.173Z,-1.60
2023-04-04T02:39:14.367Z,-1.61
2023-04-04T02:41:40.606Z,-1.70
2023-04-04T02:44:06.824Z,-1.73
2023-04-04T02:46:33.037Z,-1.79
2023-04-04T02:48:59.244Z,-1.78
2023-04-04T02:51:25.464Z,-1.75
2023-04-04T02:53:51.663Z,-1.78
2023-04-04T02:56:17.875Z,-1.80
2023-04-04T02:58:44.077Z,-1.91
2023-04-04T03:01:10.362Z,-1.86
2023-04-04T03:03:36.742Z,-1.77
2023-04-04T03:06:03.116Z,-1.76
2023-04-04T03:08:29.336Z,-1.72
2023-04-04T03:10:56.021Z,-1.71
2023-04-04T03:13:22.228Z,-1.75
2023-04-04T03:15:48.470Z,-1.77
2023-04-04T03:18:14.680Z,-1.92
2023-04-04T03:20:41.027Z,-2.04
2023-04-04T03:23:07.556Z,-1.98
2023-04-04T03:25:33.758Z,-1.95
2023-04-04T03:28:07.424Z,-1.89
2023-04-04T03:30:33.625Z,-1.87
2023-04-04T03:32:59.878Z,-1.85
2023-04-04T03:35:26.161Z,-1.83
2023-04-04T03:37:52.387Z,-2.00
2023-04-04T03:40:18.655Z,-2.15
2023-04-04T03:42:44.897Z,-2.13
2023-04-04T03:45:11.153Z,-1.98
2023-04-04T03:47:37.459Z,-1.92
2023-04-04T03:50:03.776Z,-1.88
2023-04-04T03:52:30.016Z,-1.88
2023-04-04T03:54:56.233Z,-1.88
2023-04-04T03:57:22.449Z,-1.84
2023-04-04T03:59:48.659Z,-1.84
2023-04-04T04:02:14.935Z,-1.82
2023-04-04T04:04:41.272Z,-1.94
2023-04-04T04:07:07.713Z,-1.94
2023-04-04T04:09:33.919Z,-2.48
2023-04-04T04:12:00.136Z,-2.35
2023-04-04T04:14:26.367Z,-2.30
2023-04-04T04:16:52.589Z,-2.37
2023-04-04T04:19:19.132Z,-2.29
2023-04-04T04:21:45.364Z,-2.29
2023-04-04T04:24:11.683Z,-2.44
2023-04-04T04:26:37.995Z,-2.35
2023-04-04T04:29:04.226Z,-2.22
2023-04-04T04:31:30.469Z,-2.13
2023-04-04T04:33:56.745Z,-2.14
2023-04-04T04:36:23.074Z,-2.18
2023-04-04T04:38:49.377Z,-2.30
2023-04-04T04:41:15.592Z,-2.21
2023-04-04T04:43:41.814Z,-2.11
2023-04-04T04:46:08.023Z,-2.07
2023-04-04T04:48:34.416Z,-2.09
2023-04-04T04:51:00.652Z,-2.14
2023-04-04T04:53:26.934Z,-2.15
2023-04-04T04:55:53.200Z,-2.13
2023-04-04T04:58:19.417Z,-2.06
2023-04-04T05:00:45.691Z,-1.89
2023-04-04T05:03:12.048Z,-1.81
2023-04-04T05:05:38.310Z,-1.81
2023-04-04T05:08:04.606Z,-1.61
2023-04-04T05:10:30.891Z,-0.30
2023-04-04T05:12:57.245Z,0.85
2023-04-04T05:15:23.512Z,0.73
2023-04-04T05:17:49.761Z,0.67
2023-04-04T05:20:16.126Z,1.28
2023-04-04T05:22:45.361Z,1.34
2023-04-04T05:25:11.766Z,1.55
2023-04-04T05:27:38.213Z,2.00
2023-04-04T05:30:04.604Z,2.40
2023-04-04T05:32:30.926Z,2.73
2023-04-04T05:34:57.186Z,3.00
2023-04-04T05:37:23.403Z,2.82
2023-04-04T05:39:49.621Z,1.88
2023-04-04T05:42:15.841Z,1.16
2023-04-04T05:44:42.058Z,1.18
2023-04-04T05:47:08.404Z,1.04
2023-04-04T05:49:34.626Z,0.95
2023-04-04T05:52:00.846Z,1.29
2023-04-04T05:54:27.067Z,1.18
2023-04-04T05:56:53.271Z,1.48
2023-04-04T05:59:19.577Z,1.93
2023-04-04T06:01:45.820Z,2.24
2023-04-04T06:04:12.038Z,2.51
2023-04-04T06:06:38.249Z,2.72
2023-04-04T06:09:05.444Z,3.09
2023-04-04T06:11:33.126Z,3.36
2023-04-04T06:13:59.363Z,4.44
2023-04-04T06:16:25.628Z,5.33
2023-04-04T06:18:51.851Z,5.90
2023-04-04T06:21:18.065Z,5.76
2023-04-04T06:23:44.300Z,6.23
2023-04-04T06:29:10.633Z,6.06
2023-04-04T06:31:36.935Z,6.21
2023-04-04T06:34:03.164Z,5.69
2023-04-04T06:36:29.436Z,5.46
2023-04-04T06:38:55.687Z,5.01
2023-04-04T06:41:21.947Z,4.52
2023-04-04T06:43:48.203Z,4.69
2023-04-04T06:46:14.482Z,5.03
2023-04-04T06:48:40.761Z,5.21
2023-04-04T06:51:07.259Z,5.14
2023-04-04T06:53:33.665Z,5.31
2023-04-04T06:56:00.192Z,5.00
2023-04-04T06:58:26.666Z,4.85
2023-04-04T07:00:53.126Z,5.12
2023-04-04T07:06:07.973Z,5.24
2023-04-04T07:08:37.292Z,5.65
2023-04-04T07:11:07.402Z,6.34
2023-04-04T07:13:41.701Z,5.57
2023-04-04T07:16:10.512Z,5.25
2023-04-04T07:18:51.625Z,5.72
2023-04-04T07:21:39.194Z,5.56
2023-04-04T07:24:05.493Z,5.52
2023-04-04T07:26:31.714Z,5.25
2023-04-04T07:29:07.271Z,5.76
2023-04-04T07:31:33.549Z,6.47
2023-04-04T07:33:59.807Z,7.04
2023-04-04T07:36:26.037Z,6.92
2023-04-04T07:38:52.328Z,7.12
2023-04-04T07:41:18.571Z,6.78
2023-04-04T07:43:44.793Z,6.25
2023-04-04T07:46:11.102Z,6.15
2023-04-04T07:48:37.356Z,6.46
2023-04-04T07:51:03.650Z,6.76
2023-04-04T07:53:30.061Z,6.97
2023-04-04T07:55:56.306Z,6.04
2023-04-04T07:58:22.522Z,6.15
2023-04-04T08:00:48.761Z,6.11
2023-04-04T08:03:15.180Z,6.22
2023-04-04T08:05:41.461Z,6.48
2023-04-04T08:08:07.668Z,6.16
2023-04-04T08:10:33.897Z,6.20
2023-04-04T08:13:00.129Z,5.94
2023-04-04T08:15:26.345Z,6.50
2023-04-04T08:17:52.648Z,6.21
2023-04-04T08:20:18.942Z,6.60
2023-04-04T08:22:45.190Z,6.30
2023-04-04T08:25:11.417Z,6.34
2023-04-04T08:27:40.615Z,6.39
2023-04-04T08:30:07.131Z,6.88
2023-04-04T08:32:33.405Z,7.03
2023-04-04T08:34:59.656Z,6.59
2023-04-04T08:37:25.861Z,6.40
2023-04-04T08:39:52.085Z,6.55
2023-04-04T08:42:18.361Z,6.43
2023-04-04T08:44:44.591Z,5.75
2023-04-04T08:47:11.123Z,6.04
2023-04-04T08:49:38.281Z,6.16
2023-04-04T08:52:04.607Z,6.16
2023-04-04T08:54:30.864Z,5.78
2023-04-04T08:56:57.317Z,6.66
2023-04-04T08:59:23.578Z,5.97
2023-04-04T09:01:49.870Z,6.15
2023-04-04T09:04:16.097Z,6.34
2023-04-04T09:06:42.359Z,6.38
2023-04-04T09:09:08.576Z,6.97
2023-04-04T09:11:34.876Z,6.60
2023-04-04T09:14:01.165Z,6.15
2023-04-04T09:16:27.558Z,5.99
2023-04-04T09:18:53.789Z,5.63
2023-04-04T09:21:19.999Z,5.56
2023-04-04T09:23:46.228Z,5.57
2023-04-04T09:26:12.439Z,6.26
2023-04-04T09:28:38.712Z,6.62
2023-04-04T09:31:06.738Z,6.89
2023-04-04T09:33:32.966Z,6.91
2023-04-04T09:39:07.560Z,7.10
2023-04-04T09:41:33.888Z,7.17
2023-04-04T09:44:01.420Z,6.75
2023-04-04T09:46:27.650Z,6.38
2023-04-04T09:48:56.193Z,6.05
2023-04-04T09:51:22.406Z,6.21
2023-04-04T09:53:48.621Z,6.14
2023-04-04T09:56:14.850Z,6.39
2023-04-04T09:58:52.360Z,6.60
2023-04-04T10:01:26.926Z,6.72
2023-04-04T10:03:53.386Z,6.71
2023-04-04T10:06:19.732Z,6.88
2023-04-04T10:08:45.952Z,7.48
2023-04-04T10:11:12.748Z,7.18
2023-04-04T10:13:39.342Z,7.43
2023-04-04T10:16:06.083Z,7.36
2023-04-04T10:18:33.330Z,6.97
2023-04-04T10:21:12.100Z,6.79
2023-04-04T10:23:41.320Z,7.11
2023-04-04T10:26:07.583Z,6.64
2023-04-04T10:28:36.351Z,6.75
2023-04-04T10:31:06.714Z,6.48
2023-04-04T10:33:52.476Z,6.69
2023-04-04T10:36:22.729Z,6.99
2023-04-04T10:38:55.618Z,7.03
2023-04-04T10:41:21.841Z,7.10
2023-04-04T10:43:48.037Z,6.92
2023-04-04T10:46:15.733Z,6.92
2023-04-04T10:48:49.458Z,7.30
2023-04-04T10:51:17.432Z,7.42
2023-04-04T10:53:43.658Z,7.42
2023-04-04T10:56:09.865Z,7.20
2023-04-04T10:58:39.744Z,7.52
2023-04-04T11:01:05.978Z,7.27
2023-04-04T11:03:32.559Z,6.96
2023-04-04T11:05:59.283Z,7.06
2023-04-04T11:08:26.571Z,7.16
2023-04-04T11:10:53.144Z,7.06
2023-04-04T11:13:19.356Z,6.92
2023-04-04T11:15:46.204Z,6.95
2023-04-04T11:18:27.069Z,6.83
2023-04-04T11:21:01.202Z,7.01
2023-04-04T11:23:27.786Z,6.99
2023-04-04T11:25:54.289Z,6.86
2023-04-04T11:28:40.784Z,7.28
2023-04-04T11:31:19.063Z,7.28
2023-04-04T11:33:58.338Z,7.03
2023-04-04T11:36:36.515Z,7.27
2023-04-04T11:39:21.028Z,7.82
2023-04-04T11:41:54.078Z,7.89
2023-04-04T11:44:20.928Z,7.97
2023-04-04T11:46:48.559Z,7.45
2023-04-04T11:49:16.796Z,7.81
2023-04-04T11:51:43.089Z,7.99
2023-04-04T11:54:18.571Z,7.79
2023-04-04T11:56:44.808Z,8.06
2023-04-04T11:59:12.020Z,7.27
2023-04-04T12:01:38.896Z,7.37
2023-04-04T12:04:05.198Z,7.72
2023-04-04T12:06:31.598Z,8.10
2023-04-04T12:08:57.807Z,7.56
2023-04-04T12:11:24.365Z,7.12
2023-04-04T12:13:50.584Z,7.24
2023-04-04T12:16:18.732Z,6.85
2023-04-04T12:18:45.106Z,7.24
2023-04-04T12:21:11.442Z,6.85
2023-04-04T12:23:37.721Z,6.76
2023-04-04T12:26:03.933Z,7.32
2023-04-04T12:28:30.693Z,7.67
2023-04-04T12:30:56.898Z,7.79
2023-04-04T12:33:23.095Z,7.93
2023-04-04T12:35:52.731Z,7.69
2023-04-04T12:38:18.959Z,7.27
2023-04-04T12:40:45.180Z,6.92
2023-04-04T12:43:16.018Z,7.07
2023-04-04T12:45:42.583Z,6.97
2023-04-04T12:48:15.277Z,7.19
2023-04-04T12:50:53.807Z,7.08
2023-04-04T12:53:29.089Z,7.05
2023-04-04T12:56:04.491Z,7.17
2023-04-04T12:58:31.093Z,6.91
2023-04-04T13:00:58.819Z,7.26
2023-04-04T13:03:26.719Z,6.85
2023-04-04T13:05:53.338Z,6.52
2023-04-04T13:08:21.883Z,6.56
2023-04-04T13:11:00.432Z,6.97
2023-04-04T13:13:32.814Z,6.90
2023-04-04T13:15:59.093Z,6.95
2023-04-04T13:18:25.548Z,6.84
2023-04-04T13:20:52.420Z,6.75
2023-04-04T13:23:18.658Z,6.70
2023-04-04T13:25:44.907Z,6.87
2023-04-04T13:28:11.113Z,7.09
2023-04-04T13:30:38.666Z,7.12
2023-04-04T13:33:07.298Z,7.56
2023-04-04T13:35:33.548Z,7.64
2023-04-04T13:37:59.753Z,6.96
2023-04-04T13:40:25.979Z,6.74
2023-04-04T13:42:52.198Z,6.85
2023-04-04T13:45:18.427Z,7.40
2023-04-04T13:47:44.673Z,7.16
2023-04-04T13:50:10.917Z,7.03
2023-04-04T13:52:37.194Z,7.04
2023-04-04T13:55:03.865Z,6.94
2023-04-04T13:57:30.072Z,7.10
2023-04-04T13:59:56.279Z,7.11
2023-04-04T14:02:22.554Z,7.05
2023-04-04T14:04:48.783Z,7.14
2023-04-04T14:07:15.126Z,7.00
2023-04-04T14:09:41.352Z,6.48
2023-04-04T14:12:07.590Z,6.79
2023-04-04T14:14:35.673Z,7.13
2023-04-04T14:17:04.125Z,6.80
2023-04-04T14:19:30.333Z,6.70
2023-04-04T14:21:56.556Z,6.79
2023-04-04T14:24:22.752Z,7.20
2023-04-04T14:26:48.957Z,7.57
2023-04-04T14:29:15.163Z,7.10
2023-04-04T14:31:41.459Z,6.87
2023-04-04T14:34:07.766Z,6.87
2023-04-04T14:36:34.251Z,6.93
2023-04-04T14:39:00.470Z,6.65
2023-04-04T14:41:26.685Z,6.65
2023-04-04T14:43:52.918Z,6.86
2023-04-04T14:46:19.180Z,6.88
2023-04-04T14:48:45.399Z,6.98
2023-04-04T14:51:11.627Z,6.94
2023-04-04T14:53:37.905Z,6.96
2023-04-04T14:56:05.682Z,6.65
2023-04-04T14:58:34.936Z,6.65
2023-04-04T15:01:01.178Z,6.67
2023-04-04T15:03:27.399Z,6.53
2023-04-04T15:05:56.043Z,6.51
2023-04-04T15:08:22.246Z,6.63
2023-04-04T15:10:48.473Z,6.45
2023-04-04T15:13:14.705Z,6.42
2023-04-04T15:15:41.018Z,6.41
2023-04-04T15:18:07.378Z,6.44
2023-04-04T15:20:33.683Z,6.33
2023-04-04T15:22:59.891Z,6.30
2023-04-04T15:25:26.087Z,6.12
2023-04-04T15:27:52.297Z,5.90
2023-04-04T15:30:18.512Z,5.94
2023-04-04T15:32:44.767Z,6.00
2023-04-04T15:35:15.256Z,6.03
2023-04-04T15:37:41.462Z,6.16
2023-04-04T15:40:07.968Z,6.07
2023-04-04T15:42:34.170Z,5.93
2023-04-04T15:45:00.379Z,5.94
2023-04-04T15:47:26.586Z,5.98
2023-04-04T15:49:52.871Z,5.95
2023-04-04T15:52:19.133Z,5.98
2023-04-04T15:54:45.331Z,5.82
2023-04-04T15:57:11.552Z,5.80
2023-04-04T15:59:37.751Z,5.74
2023-04-04T16:04:48.114Z,5.65
2023-04-04T16:07:22.475Z,5.61
2023-04-04T16:09:48.889Z,5.54
2023-04-04T16:14:58.419Z,5.51
2023-04-04T16:17:24.661Z,5.49
2023-04-04T16:19:50.992Z,5.50
2023-04-04T16:22:17.346Z,5.46
2023-04-04T16:24:43.561Z,5.51
2023-04-04T16:27:09.781Z,5.40
2023-04-04T16:29:35.988Z,5.37
2023-04-04T16:32:02.605Z,5.37
2023-04-04T16:34:28.825Z,5.39
2023-04-04T16:36:55.095Z,5.33
2023-04-04T16:39:21.331Z,5.32
2023-04-04T16:41:47.556Z,5.42
2023-04-04T16:44:13.779Z,5.46
2023-04-04T16:46:40.060Z,5.51
2023-04-04T16:49:06.436Z,5.50
2023-04-04T16:51:34.318Z,5.55
2023-04-04T16:54:06.113Z,5.55
2023-04-04T16:56:34.969Z,5.56
2023-04-04T16:59:01.211Z,5.50
2023-04-04T17:01:27.504Z,5.45
2023-04-04T17:03:53.807Z,5.37
2023-04-04T17:06:20.101Z,5.25
2023-04-04T17:08:46.309Z,5.25
2023-04-04T17:11:12.507Z,5.13
2023-04-04T17:13:38.711Z,5.05
2023-04-04T17:16:04.993Z,5.04
2023-04-04T17:18:31.295Z,4.91
2023-04-04T17:20:57.513Z,4.90
2023-04-04T17:23:23.898Z,4.81
2023-04-04T17:25:50.098Z,4.79
2023-04-04T17:28:16.312Z,4.75
2023-04-04T17:30:42.674Z,4.69
2023-04-04T17:33:08.995Z,4.59
2023-04-04T17:35:35.339Z,4.60
2023-04-04T17:38:01.637Z,4.49
2023-04-04T17:40:27.921Z,4.43
2023-04-04T17:42:54.167Z,4.42
2023-04-04T17:45:20.399Z,4.36
2023-04-04T17:47:46.649Z,4.36
2023-04-04T17:50:12.939Z,4.24
2023-04-04T17:52:39.177Z,4.21
2023-04-04T17:55:05.564Z,4.17
2023-04-04T17:57:31.796Z,4.13
2023-04-04T17:59:58.011Z,4.13
2023-04-04T18:02:24.237Z,4.13
2023-04-04T18:04:50.437Z,4.09
2023-04-04T18:07:16.694Z,4.05
2023-04-04T18:09:42.939Z,4.04
2023-04-04T18:12:09.238Z,3.99
2023-04-04T18:14:35.464Z,3.96
2023-04-04T18:17:01.703Z,3.90
2023-04-04T18:19:27.903Z,3.87
2023-04-04T18:21:54.120Z,3.85
2023-04-04T18:24:20.318Z,3.73
2023-04-04T18:26:46.528Z,3.69
2023-04-04T18:29:18.173Z,3.64
2023-04-04T18:31:44.602Z,3.62
2023-04-04T18:34:11.736Z,3.56
2023-04-04T18:36:46.808Z,3.46
2023-04-04T18:39:15.304Z,3.48
2023-04-04T18:41:41.690Z,3.40
2023-04-04T18:44:07.943Z,3.34
2023-04-04T18:46:34.158Z,3.33
2023-04-04T18:49:00.432Z,3.28
2023-04-04T18:51:26.654Z,3.24
2023-04-04T18:53:52.877Z,3.20
2023-04-04T18:56:19.080Z,3.17
2023-04-04T18:58:45.386Z,3.15
2023-04-04T19:01:11.730Z,3.07
2023-04-04T19:03:41.746Z,3.00
2023-04-04T19:06:08.028Z,2.96
2023-04-04T19:08:34.247Z,3.02
2023-04-04T19:11:00.445Z,2.86
2023-04-04T19:13:26.666Z,2.88
2023-04-04T19:15:52.955Z,2.83
2023-04-04T19:18:19.160Z,2.83
2023-04-04T19:20:45.371Z,2.76
2023-04-04T19:23:11.589Z,2.53
2023-04-04T19:25:37.831Z,2.69
2023-04-04T19:28:04.222Z,2.69
2023-04-04T19:30:43.435Z,2.61
2023-04-04T19:33:13.526Z,2.62
2023-04-04T19:35:52.883Z,2.60
2023-04-04T19:38:22.795Z,2.59
2023-04-04T19:40:49.790Z,2.60
2023-04-04T19:43:18.534Z,2.61
2023-04-04T19:45:46.537Z,2.54
2023-04-04T19:48:32.691Z,2.45
2023-04-04T19:50:58.926Z,2.38
2023-04-04T19:53:25.868Z,2.36
2023-04-04T19:55:52.090Z,2.35
2023-04-04T19:58:18.667Z,2.32
2023-04-04T20:00:45.154Z,2.28
2023-04-04T20:03:24.937Z,2.20
2023-04-04T20:05:56.728Z,2.22
2023-04-04T20:08:23.117Z,2.18
2023-04-04T20:10:55.488Z,2.13
2023-04-04T20:13:21.777Z,2.13
2023-04-04T20:15:47.991Z,2.06
2023-04-04T20:18:20.645Z,1.96
2023-04-04T20:20:47.464Z,1.88
2023-04-04T20:23:14.239Z,1.77
2023-04-04T20:25:40.715Z,1.88
2023-04-04T20:28:06.928Z,1.71
2023-04-04T20:30:33.188Z,1.75
2023-04-04T20:32:59.485Z,1.74
2023-04-04T20:35:26.073Z,1.46
2023-04-04T20:37:52.280Z,1.54
2023-04-04T20:40:32.883Z,1.68
2023-04-04T20:42:59.127Z,1.74
2023-04-04T20:45:41.207Z,1.73
2023-04-04T20:48:07.985Z,1.77
2023-04-04T20:50:34.263Z,1.78
2023-04-04T20:53:01.199Z,1.76
2023-04-04T20:55:28.185Z,1.73
2023-04-04T20:57:56.666Z,1.66
2023-04-04T21:00:22.980Z,1.64
2023-04-04T21:02:49.237Z,1.60
2023-04-04T21:05:31.529Z,1.61
2023-04-04T21:07:58.057Z,1.59
2023-04-04T21:10:27.232Z,1.47
2023-04-04T21:12:53.797Z,1.46
2023-04-04T21:15:20.898Z,1.54
2023-04-04T21:17:47.186Z,1.53
2023-04-04T21:20:14.489Z,1.50
2023-04-04T21:22:40.693Z,1.44
2023-04-04T21:25:06.956Z,1.41
2023-04-04T21:27:33.274Z,1.44
2023-04-04T21:29:59.481Z,1.49
2023-04-04T21:32:25.772Z,1.40
2023-04-04T21:34:52.004Z,1.32
2023-04-04T21:37:18.209Z,1.27
2023-04-04T21:39:44.432Z,1.28
2023-04-04T21:42:10.629Z,1.22
2023-04-04T21:44:36.851Z,1.26
2023-04-04T21:47:03.056Z,1.22
2023-04-04T21:49:29.275Z,1.18
2023-04-04T21:51:55.495Z,1.19
2023-04-04T21:54:22.415Z,1.21
2023-04-04T21:56:48.622Z,1.20
2023-04-04T21:59:14.976Z,1.19
2023-04-04T22:01:41.373Z,1.09
2023-04-04T22:04:07.698Z,1.07
2023-04-04T22:06:33.929Z,0.99
2023-04-04T22:09:00.175Z,0.95
2023-04-04T22:11:26.432Z,0.98
2023-04-04T22:13:52.710Z,0.97
2023-04-04T22:16:19.362Z,1.04
2023-04-04T22:18:49.312Z,1.02
2023-04-04T22:21:15.544Z,1.08
2023-04-04T22:23:41.758Z,1.11
2023-04-04T22:26:08.519Z,0.67
2023-04-04T22:28:35.012Z,0.55
2023-04-04T22:31:01.533Z,0.64
2023-04-04T22:33:28.049Z,0.60
2023-04-04T22:35:54.268Z,0.81
2023-04-04T22:38:20.486Z,0.90
2023-04-04T22:40:46.695Z,0.94
2023-04-04T22:43:12.893Z,0.85
2023-04-04T22:45:39.116Z,0.87
2023-04-04T22:48:05.383Z,0.73
2023-04-04T22:50:31.699Z,0.71
2023-04-04T22:52:57.903Z,0.69
2023-04-04T22:55:24.435Z,0.58
2023-04-04T22:57:50.643Z,0.55
2023-04-04T23:00:17.004Z,0.72
2023-04-04T23:02:43.852Z,0.63
2023-04-04T23:05:10.282Z,0.61
2023-04-04T23:07:36.757Z,0.67
2023-04-04T23:10:03.388Z,0.67
2023-04-04T23:12:29.609Z,0.66
2023-04-04T23:14:55.820Z,0.64
2023-04-04T23:17:22.025Z,0.64
2023-04-04T23:19:48.247Z,0.57
2023-04-04T23:22:14.526Z,0.52
2023-04-04T23:24:40.773Z,0.52
2023-04-04T23:27:07.116Z,0.53
2023-04-04T23:29:33.318Z,0.43
2023-04-04T23:31:59.536Z,0.42
2023-04-04T23:34:25.750Z,0.46
2023-04-04T23:36:51.962Z,0.48
2023-04-04T23:39:18.165Z,0.44
2023-04-04T23:41:44.387Z,0.48
2023-04-04T23:44:10.630Z,0.50
2023-04-04T23:46:36.888Z,0.52
2023-04-04T23:49:03.142Z,0.26
2023-04-04T23:51:29.352Z,0.01
2023-04-04T23:53:58.558Z,0.11
2023-04-04T23:56:24.776Z,0.07
2023-04-04T23:58:50.997Z,0.18
